Time;durP1;ratioP1;P1;durP2;ratioP2;P2;SDS_P1;SDS_P2;PMS_P1;PMS_P2;Temp;Humidity;BMP_temperature;BMP_pressure;BME280_temperature;BME280_humidity;BME280_pressure;Samples;Min_cycle;Max_cycle;Signal;HPM_P1;HPM_P2
2023/07/09 00:00:32;;;;;;;7.20;3.17;;;;;;;;;;8318814;28;20796;-71
2023/07/09 00:04:33;;;;;;;7.45;3.40;;;;;;;;;;8321150;28;20298;-71
2023/07/09 00:08:33;;;;;;;6.07;3.08;;;;;;;;;;8320605;28;20093;-71
2023/07/09 00:12:33;;;;;;;4.57;2.90;;;;;;;;;;8323265;28;21040;-71
2023/07/09 00:16:34;;;;;;;7.35;2.90;;;;;;;;;;8320757;28;20267;-71
2023/07/09 00:20:34;;;;;;;6.40;2.78;;;;;;;;;;8320380;28;20044;-71
2023/07/09 00:24:35;;;;;;;6.25;2.80;;;;;;;;;;8321079;28;20048;-71
2023/07/09 00:28:35;;;;;;;7.55;2.70;;;;;;;;;;8322038;28;20021;-71
2023/07/09 00:32:43;;;;;;;6.93;2.88;;;;;;;;;;8320534;28;20353;-71
2023/07/09 00:36:46;;;;;;;4.53;2.67;;;;;;;;;;8300370;28;21026;-71
2023/07/09 00:40:48;;;;;;;3.72;2.75;;;;;;;;;;8319846;28;20021;-71
2023/07/09 00:44:53;;;;;;;4.07;2.80;;;;;;;;;;8323410;28;20075;-71
2023/07/09 00:49:06;;;;;;;4.65;2.45;;;;;;;;;;8318025;28;20032;-71
2023/07/09 00:53:07;;;;;;;;;;;;;;;;;;8321627;28;20096;-71
2023/07/09 00:57:09;;;;;;;4.40;2.70;;;;;;;;;;8322692;28;19913;-71
2023/07/09 01:01:12;;;;;;;5.30;2.87;;;;;;;;;;8321136;28;20045;-71
2023/07/09 01:05:13;;;;;;;4.18;2.95;;;;;;;;;;8322068;28;20490;-71
2023/07/09 01:09:14;;;;;;;6.15;2.90;;;;;;;;;;8323564;28;20151;-71
2023/07/09 01:13:16;;;;;;;4.60;2.65;;;;;;;;;;8305101;28;20033;-71
2023/07/09 01:17:16;;;;;;;3.97;2.75;;;;;;;;;;8324276;28;20045;-71
2023/07/09 01:21:16;;;;;;;4.43;2.70;;;;;;;;;;8326662;28;20412;-71
2023/07/09 01:25:17;;;;;;;3.72;2.78;;;;;;;;;;8326262;28;20028;-71
2023/07/09 01:29:17;;;;;;;5.43;3.10;;;;;;;;;;8329571;28;20024;-71
2023/07/09 01:33:17;;;;;;;3.40;2.88;;;;;;;;;;8310319;28;20037;-71
2023/07/09 01:37:18;;;;;;;3.67;2.40;;;;;;;;;;8325874;28;20079;-71
2023/07/09 01:41:19;;;;;;;6.18;2.88;;;;;;;;;;8327688;28;20291;-71
2023/07/09 01:45:20;;;;;;;6.65;2.40;;;;;;;;;;8323739;28;20029;-71
2023/07/09 01:49:20;;;;;;;3.63;2.40;;;;;;;;;;8325600;28;20028;-71
2023/07/09 01:53:25;;;;;;;4.70;3.00;;;;;;;;;;8326898;28;20029;-71
2023/07/09 01:57:32;;;;;;;8.20;2.97;;;;;;;;;;8326409;28;20125;-71
2023/07/09 02:01:33;;;;;;;4.97;3.00;;;;;;;;;;8325459;28;20033;-71
2023/07/09 02:05:35;;;;;;;6.18;3.00;;;;;;;;;;8306043;28;20036;-71
2023/07/09 02:09:35;;;;;;;4.93;2.90;;;;;;;;;;8326190;28;20017;-71
2023/07/09 02:13:35;;;;;;;4.30;2.88;;;;;;;;;;8302314;28;20020;-71
2023/07/09 02:17:35;;;;;;;5.20;2.58;;;;;;;;;;8326192;28;20120;-71
2023/07/09 02:21:35;;;;;;;4.63;2.70;;;;;;;;;;8325079;28;20114;-71
2023/07/09 02:25:36;;;;;;;3.38;2.60;;;;;;;;;;8324638;28;20033;-71
2023/07/09 02:29:36;;;;;;;3.17;2.72;;;;;;;;;;8325537;28;20039;-71
2023/07/09 02:33:37;;;;;;;5.45;2.75;;;;;;;;;;8324782;28;20064;-71
2023/07/09 02:37:37;;;;;;;5.05;2.78;;;;;;;;;;8327316;28;20123;-71
2023/07/09 02:41:37;;;;;;;4.95;3.25;;;;;;;;;;8323834;28;20035;-71
2023/07/09 02:45:37;;;;;;;3.90;2.88;;;;;;;;;;8322560;28;20044;-71
2023/07/09 02:49:38;;;;;;;3.97;2.53;;;;;;;;;;8324975;28;20029;-71
2023/07/09 02:53:38;;;;;;;4.40;2.70;;;;;;;;;;8324262;28;20275;-71
2023/07/09 02:57:38;;;;;;;4.85;3.00;;;;;;;;;;8323210;28;20754;-71
2023/07/09 03:01:39;;;;;;;4.30;3.00;;;;;;;;;;8327161;28;20072;-71
2023/07/09 03:05:40;;;;;;;3.47;2.50;;;;;;;;;;8322797;28;20943;-71
2023/07/09 03:09:40;;;;;;;5.10;3.08;;;;;;;;;;8325941;28;20707;-71
2023/07/09 03:13:40;;;;;;;4.55;2.80;;;;;;;;;;8324552;28;20035;-71
2023/07/09 03:17:40;;;;;;;4.40;2.78;;;;;;;;;;8322988;28;20452;-71
2023/07/09 03:21:41;;;;;;;4.40;2.85;;;;;;;;;;8323481;28;20102;-71
2023/07/09 03:25:44;;;;;;;5.60;3.03;;;;;;;;;;8324504;28;20019;-71
2023/07/09 03:29:44;;;;;;;5.20;3.03;;;;;;;;;;8324928;28;20721;-71
2023/07/09 03:33:46;;;;;;;4.22;3.00;;;;;;;;;;8305632;28;20226;-71
2023/07/09 03:37:46;;;;;;;5.28;3.00;;;;;;;;;;8325566;28;20032;-71
2023/07/09 03:41:46;;;;;;;3.60;2.85;;;;;;;;;;8303307;28;20378;-71
2023/07/09 03:45:47;;;;;;;3.28;2.78;;;;;;;;;;8324198;28;20035;-71
2023/07/09 03:49:47;;;;;;;3.95;2.90;;;;;;;;;;8322399;28;21020;-71
2023/07/09 03:53:48;;;;;;;5.25;2.80;;;;;;;;;;8325957;28;20032;-71
2023/07/09 03:57:48;;;;;;;4.20;3.00;;;;;;;;;;8321421;28;20021;-71
2023/07/09 04:01:48;;;;;;;5.45;2.63;;;;;;;;;;8322906;28;21202;-71
2023/07/09 04:05:49;;;;;;;4.18;2.80;;;;;;;;;;8323368;28;20025;-71
2023/07/09 04:09:49;;;;;;;4.82;2.78;;;;;;;;;;8306632;28;20490;-71
2023/07/09 04:13:49;;;;;;;6.68;3.22;;;;;;;;;;8320602;28;20491;-71
2023/07/09 04:17:49;;;;;;;3.30;2.70;;;;;;;;;;8320823;28;20033;-71
2023/07/09 04:22:02;;;;;;;5.85;3.05;;;;;;;;;;8320983;28;20110;-71
2023/07/09 04:26:02;;;;;;;4.15;2.70;;;;;;;;;;8317917;28;20032;-71
2023/07/09 04:30:05;;;;;;;5.03;2.80;;;;;;;;;;8306489;28;20025;-71
2023/07/09 04:34:05;;;;;;;5.63;2.75;;;;;;;;;;8320641;28;20051;-71
2023/07/09 04:38:05;;;;;;;3.92;2.85;;;;;;;;;;8318747;28;20087;-71
2023/07/09 04:42:06;;;;;;;3.75;2.55;;;;;;;;;;8320985;28;20067;-71
2023/07/09 04:46:07;;;;;;;3.88;2.80;;;;;;;;;;8322855;28;20513;-71
2023/07/09 04:50:08;;;;;;;6.20;2.70;;;;;;;;;;8329829;28;20476;-71
2023/07/09 04:54:08;;;;;;;7.90;2.88;;;;;;;;;;8329159;28;20028;-71
2023/07/09 04:58:09;;;;;;;4.13;2.53;;;;;;;;;;8326014;28;20041;-71
2023/07/09 05:02:09;;;;;;;4.93;3.03;;;;;;;;;;8326043;28;20664;-71
2023/07/09 05:06:10;;;;;;;4.00;2.80;;;;;;;;;;8327064;28;20122;-71
2023/07/09 05:10:10;;;;;;;8.25;3.40;;;;;;;;;;8329511;28;20044;-71
2023/07/09 05:14:10;;;;;;;4.72;2.90;;;;;;;;;;8327546;28;20130;-71
2023/07/09 05:18:11;;;;;;;6.63;2.78;;;;;;;;;;8327966;28;20135;-71
2023/07/09 05:22:11;;;;;;;4.25;2.78;;;;;;;;;;8328355;28;20462;-71
2023/07/09 05:26:11;;;;;;;5.43;2.60;;;;;;;;;;8328144;28;20036;-71
2023/07/09 05:30:12;;;;;;;5.38;2.90;;;;;;;;;;8325444;28;20283;-71
2023/07/09 05:34:12;;;;;;;7.03;3.00;;;;;;;;;;8324746;28;20492;-71
2023/07/09 05:38:13;;;;;;;6.38;2.83;;;;;;;;;;8328697;28;20054;-71
2023/07/09 05:42:13;;;;;;;4.80;2.90;;;;;;;;;;8325355;28;20028;-71
2023/07/09 05:46:14;;;;;;;4.22;2.80;;;;;;;;;;8324877;28;20029;-71
2023/07/09 05:50:14;;;;;;;6.63;3.20;;;;;;;;;;8326600;28;20082;-71
2023/07/09 05:54:15;;;;;;;6.25;2.92;;;;;;;;;;8327452;28;20834;-72
2023/07/09 05:58:15;;;;;;;5.82;2.90;;;;;;;;;;8325992;28;20029;-72
2023/07/09 06:02:16;;;;;;;6.97;3.00;;;;;;;;;;8322052;28;20122;-72
2023/07/09 06:06:17;;;;;;;7.13;2.90;;;;;;;;;;8326668;28;20875;-72
2023/07/09 06:10:17;;;;;;;5.60;3.45;;;;;;;;;;8327079;28;20045;-72
2023/07/09 06:14:18;;;;;;;3.97;2.77;;;;;;;;;;8324587;28;20654;-72
2023/07/09 06:18:19;;;;;;;7.10;2.85;;;;;;;;;;8320642;28;20045;-72
2023/07/09 06:22:19;;;;;;;7.60;3.28;;;;;;;;;;8326184;28;20028;-72
2023/07/09 06:26:19;;;;;;;5.60;3.20;;;;;;;;;;8320609;28;20009;-72
2023/07/09 06:30:19;;;;;;;7.07;3.00;;;;;;;;;;8321890;28;20033;-72
2023/07/09 06:34:20;;;;;;;5.43;2.77;;;;;;;;;;8323296;28;20032;-72
2023/07/09 06:38:20;;;;;;;5.70;2.85;;;;;;;;;;8324065;28;20124;-72
2023/07/09 06:42:21;;;;;;;5.32;3.20;;;;;;;;;;8324027;28;20112;-72
2023/07/09 06:46:21;;;;;;;7.32;4.00;;;;;;;;;;8320214;28;20036;-72
2023/07/09 06:50:21;;;;;;;6.83;3.50;;;;;;;;;;8323883;28;20068;-72
2023/07/09 06:54:21;;;;;;;5.03;3.33;;;;;;;;;;8321686;28;20017;-72
2023/07/09 06:58:22;;;;;;;5.70;3.47;;;;;;;;;;8321514;28;20029;-72
2023/07/09 07:02:23;;;;;;;4.97;3.10;;;;;;;;;;8324358;28;20087;-72
2023/07/09 07:06:23;;;;;;;7.67;3.70;;;;;;;;;;8318763;28;20053;-72
2023/07/09 07:10:23;;;;;;;9.37;3.57;;;;;;;;;;8320028;28;20048;-72
2023/07/09 07:14:23;;;;;;;8.65;3.45;;;;;;;;;;8324967;28;20025;-72
2023/07/09 07:18:24;;;;;;;6.17;3.67;;;;;;;;;;8321564;28;20029;-72
2023/07/09 07:22:24;;;;;;;8.70;3.78;;;;;;;;;;8318651;28;20097;-72
2023/07/09 07:26:24;;;;;;;7.35;3.80;;;;;;;;;;8316959;28;20031;-73
2023/07/09 07:30:24;;;;;;;7.68;3.85;;;;;;;;;;8318250;28;20819;-73
2023/07/09 07:34:25;;;;;;;8.40;3.60;;;;;;;;;;8324780;28;20304;-73
2023/07/09 07:38:25;;;;;;;5.88;3.28;;;;;;;;;;8304498;28;20052;-74
2023/07/09 07:42:25;;;;;;;6.38;3.28;;;;;;;;;;8321969;28;20552;-73
2023/07/09 07:46:25;;;;;;;7.73;3.57;;;;;;;;;;8304803;28;20029;-73
2023/07/09 07:50:25;;;;;;;7.00;3.67;;;;;;;;;;8325436;28;21235;-73
2023/07/09 07:54:26;;;;;;;7.15;3.40;;;;;;;;;;8322592;28;20911;-73
2023/07/09 07:58:26;;;;;;;8.57;3.40;;;;;;;;;;8317740;28;20626;-74
2023/07/09 08:02:27;;;;;;;4.80;3.50;;;;;;;;;;8319087;28;20497;-73
2023/07/09 08:06:27;;;;;;;5.82;3.60;;;;;;;;;;8316407;28;20036;-74
2023/07/09 08:10:29;;;;;;;8.80;3.57;;;;;;;;;;8322428;28;20090;-74
2023/07/09 08:14:29;;;;;;;7.55;3.75;;;;;;;;;;8319267;28;20033;-73
2023/07/09 08:18:29;;;;;;;7.47;3.58;;;;;;;;;;8305465;28;20032;-74
2023/07/09 08:22:29;;;;;;;6.93;3.70;;;;;;;;;;8322303;28;20133;-71
2023/07/09 08:26:31;;;;;;;5.37;3.30;;;;;;;;;;8324011;28;20032;-73
2023/07/09 08:30:31;;;;;;;4.28;3.20;;;;;;;;;;8321445;28;20036;-71
2023/07/09 08:34:31;;;;;;;6.53;3.60;;;;;;;;;;8320196;28;20029;-71
2023/07/09 08:38:31;;;;;;;5.85;3.60;;;;;;;;;;8317593;28;20553;-71
2023/07/09 08:42:53;;;;;;;5.15;3.50;;;;;;;;;;8318750;28;20047;-71
2023/07/09 08:46:59;;;;;;;7.97;3.50;;;;;;;;;;8318401;28;20040;-71
2023/07/09 08:51:07;;;;;;;5.15;3.50;;;;;;;;;;8321522;28;20612;-71
2023/07/09 08:55:14;;;;;;;8.63;3.90;;;;;;;;;;8322660;28;20017;-71
2023/07/09 08:59:15;;;;;;;7.38;3.70;;;;;;;;;;8318380;28;20021;-71
2023/07/09 09:03:35;;;;;;;5.00;3.30;;;;;;;;;;8319045;28;20033;-71
2023/07/09 09:07:40;;;;;;;5.90;3.75;;;;;;;;;;8324050;28;20743;-71
2023/07/09 09:11:44;;;;;;;7.15;3.85;;;;;;;;;;8317963;28;20401;-71
2023/07/09 09:15:45;;;;;;;7.32;3.83;;;;;;;;;;8316465;28;20520;-72
2023/07/09 09:19:48;;;;;;;4.53;3.40;;;;;;;;;;8319477;28;20021;-72
2023/07/09 09:23:49;;;;;;;5.45;3.45;;;;;;;;;;8321437;28;20033;-72
2023/07/09 09:27:51;;;;;;;4.85;3.10;;;;;;;;;;8321660;28;20139;-72
2023/07/09 09:31:55;;;;;;;6.95;3.63;;;;;;;;;;8323628;28;20029;-72
2023/07/09 09:36:01;;;;;;;5.10;3.53;;;;;;;;;;8327214;28;20024;-72
2023/07/09 09:40:02;;;;;;;4.40;3.10;;;;;;;;;;8328369;28;20355;-72
2023/07/09 09:44:04;;;;;;;5.07;3.30;;;;;;;;;;8329593;28;20090;-71
2023/07/09 09:48:04;;;;;;;;;;;;;;;;;;8325242;28;20037;-72
2023/07/09 09:52:06;;;;;;;5.00;2.83;;;;;;;;;;8326690;28;20328;-72
2023/07/09 09:56:11;;;;;;;4.82;3.05;;;;;;;;;;8328523;28;20078;-72
2023/07/09 10:00:16;;;;;;;5.85;3.20;;;;;;;;;;8326418;28;20511;-72
2023/07/09 10:04:17;;;;;;;5.43;3.33;;;;;;;;;;8323173;28;20021;-72
2023/07/09 10:08:28;;;;;;;5.05;2.88;;;;;;;;;;8324171;28;20052;-71
2023/07/09 10:12:51;;;;;;;5.00;3.33;;;;;;;;;;8315183;28;20070;-71
2023/07/09 10:16:53;;;;;;;5.28;3.88;;;;;;;;;;8320571;28;20480;-72
2023/07/09 10:21:17;;;;;;;6.22;3.40;;;;;;;;;;8324044;28;20113;-71
2023/07/09 10:25:40;;;;;;;7.13;3.30;;;;;;;;;;8308131;28;20037;-71
2023/07/09 10:29:55;;;;;;;3.95;2.88;;;;;;;;;;8317359;28;20052;-71
2023/07/09 10:33:55;;;;;;;4.43;3.28;;;;;;;;;;8319753;28;20121;-72
2023/07/09 10:38:14;;;;;;;4.57;2.70;;;;;;;;;;8316472;28;20103;-71
2023/07/09 10:42:24;;;;;;;5.32;3.60;;;;;;;;;;8292596;28;20091;-72
2023/07/09 10:46:25;;;;;;;4.75;3.28;;;;;;;;;;8316033;28;20038;-72
2023/07/09 10:50:28;;;;;;;4.25;3.30;;;;;;;;;;8318644;28;20486;-72
2023/07/09 10:54:37;;;;;;;5.50;3.42;;;;;;;;;;8320795;28;20075;-71
2023/07/09 10:58:58;;;;;;;5.00;3.38;;;;;;;;;;8316489;28;20446;-72
2023/07/09 11:03:00;;;;;;;5.03;3.15;;;;;;;;;;8318204;28;20036;-71
2023/07/09 11:07:02;;;;;;;3.45;3.08;;;;;;;;;;8317781;28;20080;-72
2023/07/09 11:11:04;;;;;;;6.35;3.03;;;;;;;;;;8317093;28;20021;-72
2023/07/09 11:15:05;;;;;;;4.82;3.10;;;;;;;;;;8317395;28;20029;-72
2023/07/09 11:19:06;;;;;;;;;;;;;;;;;;8319007;28;20128;-72
2023/07/09 11:23:16;;;;;;;4.72;2.70;;;;;;;;;;8296983;28;20314;-71
2023/07/09 11:27:18;;;;;;;5.03;2.43;;;;;;;;;;8319786;28;20103;-71
2023/07/09 11:31:46;;;;;;;7.13;2.90;;;;;;;;;;8319824;28;20040;-71
2023/07/09 11:36:12;;;;;;;5.78;2.70;;;;;;;;;;8314208;28;20816;-71
2023/07/09 11:40:13;;;;;;;5.57;2.95;;;;;;;;;;8311045;28;20055;-72
2023/07/09 11:44:15;;;;;;;6.03;2.92;;;;;;;;;;8314702;28;20029;-71
2023/07/09 11:48:15;;;;;;;3.75;2.78;;;;;;;;;;8309862;28;20037;-71
2023/07/09 11:52:18;;;;;;;5.13;2.88;;;;;;;;;;8315076;28;20560;-71
2023/07/09 11:56:19;;;;;;;3.30;2.80;;;;;;;;;;8310714;28;20132;-72
2023/07/09 12:00:19;;;;;;;;;;;;;;;;;;8318623;28;20181;-72
2023/07/09 12:04:21;;;;;;;6.57;3.10;;;;;;;;;;8309406;28;19913;-71
2023/07/09 12:08:35;;;;;;;3.83;2.90;;;;;;;;;;8319866;28;20033;-72
2023/07/09 12:12:41;;;;;;;5.72;2.65;;;;;;;;;;8314494;28;20025;-71
2023/07/09 12:16:49;;;;;;;7.80;2.95;;;;;;;;;;8315976;28;20037;-70
2023/07/09 12:20:50;;;;;;;3.92;2.63;;;;;;;;;;8318871;28;20549;-70
2023/07/09 12:24:53;;;;;;;4.50;2.60;;;;;;;;;;8320443;28;20714;-70
2023/07/09 12:28:56;;;;;;;5.05;3.03;;;;;;;;;;8316039;28;20768;-70
2023/07/09 12:32:57;;;;;;;5.40;2.90;;;;;;;;;;8319167;28;20827;-70
2023/07/09 12:36:57;;;;;;;5.30;2.80;;;;;;;;;;8316320;28;20036;-70
2023/07/09 12:40:59;;;;;;;4.05;3.10;;;;;;;;;;8313622;28;20028;-70
2023/07/09 12:45:00;;;;;;;3.97;2.78;;;;;;;;;;8315638;28;20120;-70
2023/07/09 12:49:00;;;;;;;4.30;2.90;;;;;;;;;;8317515;28;20783;-71
2023/07/09 12:53:17;;;;;;;3.47;2.92;;;;;;;;;;8312992;28;20017;-72
2023/07/09 12:57:17;;;;;;;3.65;2.53;;;;;;;;;;8313159;28;20041;-70
2023/07/09 13:01:18;;;;;;;4.78;3.30;;;;;;;;;;8314345;28;20130;-70
2023/07/09 13:05:27;;;;;;;4.73;2.80;;;;;;;;;;8314280;28;20025;-70
2023/07/09 13:09:28;;;;;;;7.35;2.95;;;;;;;;;;8320197;28;20025;-70
2023/07/09 13:13:28;;;;;;;6.13;2.67;;;;;;;;;;8322589;28;20087;-70
2023/07/09 13:17:32;;;;;;;4.25;2.70;;;;;;;;;;8320346;28;20037;-70
2023/07/09 13:21:33;;;;;;;6.47;2.70;;;;;;;;;;8325399;28;20136;-70
2023/07/09 13:25:33;;;;;;;3.88;2.53;;;;;;;;;;8320205;28;20029;-70
2023/07/09 13:29:33;;;;;;;2.87;2.37;;;;;;;;;;8311683;28;20055;-70
2023/07/09 13:33:34;;;;;;;5.45;2.70;;;;;;;;;;8321147;28;20697;-70
2023/07/09 13:37:34;;;;;;;4.87;2.80;;;;;;;;;;8322266;28;20378;-70
2023/07/09 13:41:34;;;;;;;5.13;2.60;;;;;;;;;;8323373;28;20029;-70
2023/07/09 13:45:34;;;;;;;5.25;2.65;;;;;;;;;;8321372;28;20025;-71
2023/07/09 13:49:35;;;;;;;6.83;2.90;;;;;;;;;;8321713;28;20036;-70
2023/07/09 13:53:35;;;;;;;3.33;2.63;;;;;;;;;;8298610;28;20025;-70
2023/07/09 13:57:36;;;;;;;6.50;2.97;;;;;;;;;;8321889;28;20057;-70
2023/07/09 14:01:36;;;;;;;7.73;2.70;;;;;;;;;;8324395;28;20579;-70
2023/07/09 14:05:36;;;;;;;5.47;2.70;;;;;;;;;;8322065;28;20029;-71
2023/07/09 14:09:36;;;;;;;3.03;2.67;;;;;;;;;;8321781;28;20035;-70
2023/07/09 14:13:36;;;;;;;3.75;2.40;;;;;;;;;;8321723;28;20991;-71
2023/07/09 14:17:38;;;;;;;3.85;2.60;;;;;;;;;;8317752;28;20056;-70
2023/07/09 14:21:38;;;;;;;4.10;2.80;;;;;;;;;;8322081;28;20029;-70
2023/07/09 14:25:39;;;;;;;8.18;2.72;;;;;;;;;;8320396;28;20486;-70
2023/07/09 14:29:39;;;;;;;4.30;2.70;;;;;;;;;;8304097;28;20122;-70
2023/07/09 14:33:40;;;;;;;6.47;3.17;;;;;;;;;;8317735;28;20025;-70
2023/07/09 14:37:40;;;;;;;4.38;2.97;;;;;;;;;;8320728;28;20350;-70
2023/07/09 14:41:40;;;;;;;4.67;2.90;;;;;;;;;;8313815;28;20031;-71
2023/07/09 14:45:41;;;;;;;4.27;2.63;;;;;;;;;;8293465;28;20533;-70
2023/07/09 14:49:41;;;;;;;6.47;3.00;;;;;;;;;;8319118;28;20033;-70
2023/07/09 14:53:42;;;;;;;5.72;3.22;;;;;;;;;;8319626;28;20021;-70
2023/07/09 14:57:42;;;;;;;5.00;2.57;;;;;;;;;;8297906;28;20025;-70
2023/07/09 15:01:43;;;;;;;5.77;3.00;;;;;;;;;;8317436;28;20041;-71
2023/07/09 15:05:43;;;;;;;5.88;2.90;;;;;;;;;;8319939;28;20503;-70
2023/07/09 15:09:44;;;;;;;4.95;2.70;;;;;;;;;;8318448;28;20040;-70
2023/07/09 15:13:44;;;;;;;4.53;2.58;;;;;;;;;;8315547;28;20044;-71
2023/07/09 15:17:45;;;;;;;4.03;2.70;;;;;;;;;;8316947;28;20622;-71
2023/07/09 15:21:46;;;;;;;5.90;3.10;;;;;;;;;;8287379;28;20035;-71
2023/07/09 15:25:46;;;;;;;6.53;2.85;;;;;;;;;;8317004;28;20025;-70
2023/07/09 15:29:49;;;;;;;5.17;3.00;;;;;;;;;;8301262;28;20040;-73
2023/07/09 15:33:49;;;;;;;5.13;3.10;;;;;;;;;;8316664;28;20179;-73
2023/07/09 15:37:49;;;;;;;4.27;2.80;;;;;;;;;;8301100;28;20020;-73
2023/07/09 15:41:50;;;;;;;4.10;2.57;;;;;;;;;;8306445;28;20029;-73
2023/07/09 15:45:51;;;;;;;4.50;2.85;;;;;;;;;;8318344;28;20029;-73
2023/07/09 15:49:51;;;;;;;4.35;2.72;;;;;;;;;;8319458;28;20282;-76
2023/07/09 15:53:51;;;;;;;5.63;2.67;;;;;;;;;;8320384;28;20056;-74
2023/07/09 15:57:53;;;;;;;7.95;2.63;;;;;;;;;;8316211;28;20017;-77
2023/07/09 16:01:53;;;;;;;;;;;;;;;;;;8319310;28;20045;-74
2023/07/09 16:05:53;;;;;;;7.35;3.17;;;;;;;;;;8322358;28;20472;-74
2023/07/09 16:09:53;;;;;;;7.22;3.20;;;;;;;;;;8323783;28;20100;-74
2023/07/09 16:13:55;;;;;;;7.45;2.80;;;;;;;;;;8303979;28;20131;-74
2023/07/09 16:17:55;;;;;;;6.43;2.47;;;;;;;;;;8323018;28;20040;-74
2023/07/09 16:21:58;;;;;;;4.57;2.43;;;;;;;;;;8324294;28;20028;-74
2023/07/09 16:25:58;;;;;;;4.97;2.80;;;;;;;;;;8322481;28;20456;-74
2023/07/09 16:29:58;;;;;;;5.32;2.50;;;;;;;;;;8321777;28;20033;-74
2023/07/09 16:33:58;;;;;;;3.90;2.60;;;;;;;;;;8322187;28;20752;-74
2023/07/09 16:37:59;;;;;;;4.03;2.67;;;;;;;;;;8322307;28;20036;-74
2023/07/09 16:41:59;;;;;;;3.90;2.70;;;;;;;;;;8321640;28;20039;-74
2023/07/09 16:45:59;;;;;;;4.43;2.53;;;;;;;;;;8329258;28;20037;-74
2023/07/09 16:49:59;;;;;;;3.27;2.77;;;;;;;;;;8328019;28;20025;-75
2023/07/09 16:54:03;;;;;;;6.43;2.90;;;;;;;;;;8328935;28;20034;-74
2023/07/09 16:58:04;;;;;;;5.38;2.80;;;;;;;;;;8309324;28;20055;-74
2023/07/09 17:02:21;;;;;;;7.73;2.97;;;;;;;;;;8327630;28;20037;-74
2023/07/09 17:06:21;;;;;;;5.00;2.70;;;;;;;;;;8328472;28;20029;-74
2023/07/09 17:10:22;;;;;;;3.85;2.45;;;;;;;;;;8329157;28;20017;-75
2023/07/09 17:14:22;;;;;;;3.83;2.80;;;;;;;;;;8326798;28;20031;-74
2023/07/09 17:18:24;;;;;;;5.82;3.00;;;;;;;;;;8329851;28;20119;-74
2023/07/09 17:22:32;;;;;;;6.65;2.60;;;;;;;;;;8315796;28;20029;-74
2023/07/09 17:26:32;;;;;;;5.57;2.60;;;;;;;;;;8325202;28;20719;-74
2023/07/09 17:30:33;;;;;;;5.40;2.80;;;;;;;;;;8328730;28;20065;-74
2023/07/09 17:34:33;;;;;;;5.20;2.78;;;;;;;;;;8315472;28;20556;-74
2023/07/09 17:38:34;;;;;;;5.38;2.80;;;;;;;;;;8327462;28;20029;-74
2023/07/09 17:42:34;;;;;;;6.68;2.70;;;;;;;;;;8326510;28;20025;-75
2023/07/09 17:46:34;;;;;;;7.20;2.90;;;;;;;;;;8326075;28;20486;-74
2023/07/09 17:50:35;;;;;;;5.43;2.78;;;;;;;;;;8307841;28;20263;-75
2023/07/09 17:54:35;;;;;;;9.07;3.00;;;;;;;;;;8326493;28;20393;-74
2023/07/09 17:58:36;;;;;;;3.97;3.00;;;;;;;;;;8325053;28;20044;-74
2023/07/09 18:02:38;;;;;;;5.90;2.87;;;;;;;;;;8328559;28;20140;-74
2023/07/09 18:06:38;;;;;;;9.07;2.60;;;;;;;;;;8329458;28;20029;-74
2023/07/09 18:10:40;;;;;;;7.00;3.00;;;;;;;;;;8309075;28;20409;-74
2023/07/09 18:14:42;;;;;;;5.60;2.83;;;;;;;;;;8312979;28;20028;-74
2023/07/09 18:18:42;;;;;;;3.25;2.55;;;;;;;;;;8326554;28;20074;-75
2023/07/09 18:22:43;;;;;;;4.65;2.60;;;;;;;;;;8327396;28;20028;-74
2023/07/09 18:26:43;;;;;;;7.30;2.63;;;;;;;;;;8326642;28;20415;-74
2023/07/09 18:30:43;;;;;;;6.70;2.70;;;;;;;;;;8324975;28;20025;-74
2023/07/09 18:34:44;;;;;;;5.53;2.87;;;;;;;;;;8324668;28;20528;-74
2023/07/09 18:38:44;;;;;;;6.57;3.10;;;;;;;;;;8328167;28;21033;-74
2023/07/09 18:42:45;;;;;;;4.35;2.88;;;;;;;;;;8323800;28;20032;-74
2023/07/09 18:46:46;;;;;;;4.20;2.90;;;;;;;;;;8327207;28;20166;-73
2023/07/09 18:50:47;;;;;;;8.27;3.37;;;;;;;;;;8326063;28;20029;-73
2023/07/09 18:54:52;;;;;;;6.28;2.47;;;;;;;;;;8325049;28;20140;-74
2023/07/09 18:58:52;;;;;;;6.45;2.50;;;;;;;;;;8324076;28;20494;-74
2023/07/09 19:02:54;;;;;;;6.72;2.60;;;;;;;;;;8326209;28;20060;-74
2023/07/09 19:06:54;;;;;;;3.67;2.70;;;;;;;;;;8326108;28;20025;-73
2023/07/09 19:10:54;;;;;;;5.13;2.60;;;;;;;;;;8310076;28;20497;-73
2023/07/09 19:14:56;;;;;;;5.32;3.00;;;;;;;;;;8325062;28;20128;-73
2023/07/09 19:18:56;;;;;;;6.78;3.00;;;;;;;;;;8327241;28;20037;-73
2023/07/09 19:22:56;;;;;;;4.50;2.97;;;;;;;;;;8325254;28;20039;-73
2023/07/09 19:26:57;;;;;;;5.97;3.50;;;;;;;;;;8306699;28;20025;-73
2023/07/09 19:30:57;;;;;;;5.43;2.90;;;;;;;;;;8325094;28;20413;-73
2023/07/09 19:34:58;;;;;;;4.07;2.50;;;;;;;;;;8306860;28;20021;-73
2023/07/09 19:38:58;;;;;;;5.57;2.85;;;;;;;;;;8321014;28;20279;-73
2023/07/09 19:42:58;;;;;;;3.70;2.83;;;;;;;;;;8325187;28;20039;-73
2023/07/09 19:47:00;;;;;;;6.28;3.30;;;;;;;;;;8322606;28;20529;-73
2023/07/09 19:51:00;;;;;;;9.05;3.40;;;;;;;;;;8323085;28;20120;-73
2023/07/09 19:55:04;;;;;;;4.60;3.17;;;;;;;;;;8317916;28;20032;-73
2023/07/09 19:59:04;;;;;;;5.53;3.15;;;;;;;;;;8311725;28;21020;-73
2023/07/09 20:03:08;;;;;;;6.32;3.20;;;;;;;;;;8316847;28;20056;-73
2023/07/09 20:07:09;;;;;;;7.50;2.95;;;;;;;;;;8321420;28;20044;-73
2023/07/09 20:11:11;;;;;;;4.88;3.10;;;;;;;;;;8316157;28;20021;-73
2023/07/09 20:15:22;;;;;;;9.03;3.30;;;;;;;;;;8317509;28;20021;-71
2023/07/09 20:19:22;;;;;;;11.43;4.05;;;;;;;;;;8320100;28;20080;-71
2023/07/09 20:23:22;;;;;;;11.13;3.20;;;;;;;;;;8310165;28;20037;-72
2023/07/09 20:27:23;;;;;;;6.68;3.10;;;;;;;;;;8306168;28;20033;-71
2023/07/09 20:31:24;;;;;;;5.80;3.25;;;;;;;;;;8321429;28;20929;-72
2023/07/09 20:35:24;;;;;;;4.22;3.05;;;;;;;;;;8316552;28;20483;-71
2023/07/09 20:39:24;;;;;;;8.50;3.42;;;;;;;;;;8314480;28;20025;-72
2023/07/09 20:43:29;;;;;;;5.20;2.95;;;;;;;;;;8305069;28;20025;-71
2023/07/09 20:47:30;;;;;;;4.30;3.20;;;;;;;;;;8303537;28;20544;-71
2023/07/09 20:51:30;;;;;;;5.15;3.22;;;;;;;;;;8298917;28;20033;-72
2023/07/09 20:55:30;;;;;;;4.90;3.10;;;;;;;;;;8300311;28;20033;-72
2023/07/09 20:59:31;;;;;;;5.07;2.67;;;;;;;;;;8293012;28;20029;-71
2023/07/09 21:03:31;;;;;;;10.00;3.20;;;;;;;;;;8298773;28;20044;-72
2023/07/09 21:07:31;;;;;;;6.75;3.13;;;;;;;;;;8312525;28;20074;-71
2023/07/09 21:11:32;;;;;;;4.15;3.00;;;;;;;;;;8312327;28;20021;-71
2023/07/09 21:15:32;;;;;;;6.97;3.10;;;;;;;;;;8312514;28;20267;-72
2023/07/09 21:19:33;;;;;;;5.53;2.97;;;;;;;;;;8319918;28;20100;-72
2023/07/09 21:23:34;;;;;;;5.30;3.22;;;;;;;;;;8319452;28;20032;-72
2023/07/09 21:27:34;;;;;;;6.72;3.20;;;;;;;;;;8316467;28;20044;-72
2023/07/09 21:31:34;;;;;;;5.25;3.00;;;;;;;;;;8315561;28;20037;-72
2023/07/09 21:35:35;;;;;;;6.15;3.00;;;;;;;;;;8326815;28;20025;-72
2023/07/09 21:39:36;;;;;;;7.30;3.30;;;;;;;;;;8306500;28;20585;-72
2023/07/09 21:43:37;;;;;;;6.13;3.10;;;;;;;;;;8326425;28;20299;-72
2023/07/09 21:47:37;;;;;;;6.50;2.90;;;;;;;;;;8324869;28;20037;-72
2023/07/09 21:51:37;;;;;;;7.03;3.10;;;;;;;;;;8326889;28;20067;-72
2023/07/09 21:55:38;;;;;;;7.05;3.15;;;;;;;;;;8325347;28;20816;-72
2023/07/09 21:59:38;;;;;;;8.05;3.22;;;;;;;;;;8326363;28;20067;-72
2023/07/09 22:03:38;;;;;;;4.53;2.80;;;;;;;;;;8322603;28;20044;-72
2023/07/09 22:07:39;;;;;;;4.15;2.83;;;;;;;;;;8322908;28;20036;-73
2023/07/09 22:11:47;;;;;;;4.60;2.80;;;;;;;;;;8324642;28;20027;-73
2023/07/09 22:15:47;;;;;;;5.53;2.85;;;;;;;;;;8326349;28;20029;-72
2023/07/09 22:19:48;;;;;;;4.80;3.00;;;;;;;;;;8326404;28;20106;-72
2023/07/09 22:23:49;;;;;;;6.57;3.00;;;;;;;;;;8307195;28;20055;-71
2023/07/09 22:27:49;;;;;;;5.55;2.92;;;;;;;;;;8309674;28;20271;-73
2023/07/09 22:31:50;;;;;;;4.57;2.70;;;;;;;;;;8323255;28;20034;-72
2023/07/09 22:35:50;;;;;;;3.13;2.50;;;;;;;;;;8323619;28;20138;-72
2023/07/09 22:39:50;;;;;;;6.50;2.60;;;;;;;;;;8320849;28;20037;-72
2023/07/09 22:43:50;;;;;;;8.03;3.10;;;;;;;;;;8313107;28;21360;-72
2023/07/09 22:47:53;;;;;;;7.25;3.15;;;;;;;;;;8324646;28;20279;-72
2023/07/09 22:51:54;;;;;;;9.75;3.40;;;;;;;;;;8325084;28;20021;-72
2023/07/09 22:55:54;;;;;;;3.92;2.83;;;;;;;;;;8320711;28;20040;-72
2023/07/09 22:59:54;;;;;;;4.85;3.15;;;;;;;;;;8324249;28;20469;-72
2023/07/09 23:03:55;;;;;;;6.68;3.17;;;;;;;;;;8321399;28;20029;-72
2023/07/09 23:07:55;;;;;;;6.57;3.20;;;;;;;;;;8324907;28;20100;-72
2023/07/09 23:11:55;;;;;;;3.72;2.75;;;;;;;;;;8322787;28;20572;-72
2023/07/09 23:15:55;;;;;;;5.80;3.00;;;;;;;;;;8323778;28;20635;-72
2023/07/09 23:19:55;;;;;;;5.07;3.10;;;;;;;;;;8323299;28;20033;-72
2023/07/09 23:24:00;;;;;;;4.75;2.80;;;;;;;;;;8325022;28;20127;-72
2023/07/09 23:28:02;;;;;;;3.58;2.65;;;;;;;;;;8324547;28;20462;-72
2023/07/09 23:32:03;;;;;;;3.92;2.70;;;;;;;;;;8325513;28;20028;-71
2023/07/09 23:36:05;;;;;;;4.25;2.58;;;;;;;;;;8322933;28;20032;-72
2023/07/09 23:40:06;;;;;;;6.35;2.95;;;;;;;;;;8326739;28;20086;-72
2023/07/09 23:44:13;;;;;;;4.80;3.08;;;;;;;;;;8324621;28;20055;-72
2023/07/09 23:48:20;;;;;;;6.00;2.85;;;;;;;;;;8305453;28;20738;-72
2023/07/09 23:52:21;;;;;;;4.93;2.92;;;;;;;;;;8324495;28;20065;-72
2023/07/09 23:56:27;;;;;;;5.72;2.92;;;;;;;;;;8321615;28;20685;-72
